Seaexpressii — HO4619 — position and weather

sailwx.info

Track history (hours):
 
Tides and Currents Weather Stations Pressure Air Temp Water Temp Dewpoint Dewpoint Depression Visibility Wind Speed Wind Dir Waves Ship Positions

Seaexpressii

Last reported at 2016-Feb-04 22:27 UTC. Time now 2016-Feb-05 22:24 UTC.
Position N 26°05' W 079°59'.

Length 37 m; draft 2.1 m.

Type: Ship (hazmat cat B). MMSI: 356449000.

Date/timePositionNaut miles runAvg speedWind from/ knotsBaromVisibWave heightAir tempDewpointWater temp
2016-Feb-04 22:27N 26°05' W 079°59'7 7.3
2016-Feb-04 21:28N 26°04' W 080°07'1 0.2
2016-Feb-04 17:17N 26°04' W 080°08'14 7.8
2016-Feb-04 15:32N 26°02' W 079°53'10 0.3
2016-Feb-03 07:23N 26°05' W 080°04'4 4.7
2016-Feb-03 06:33N 26°04' W 080°08'0 0.0
2016-Feb-03 02:24N 26°04' W 080°08'1 0.3
2016-Feb-03 00:19N 26°04' W 080°07'19 1.0
2016-Feb-02 05:28N 26°11' W 079°47'910.2
2016-Feb-02 04:33N 26°08' W 079°57'9 9.4
2016-Feb-02 03:33N 26°05' W 080°07'2 1.8
2016-Feb-02 02:33N 26°04' W 080°08'0 0.0
2016-Feb-02 01:33N 26°04' W 080°08'0 0.0
2016-Feb-02 00:34N 26°04' W 080°08'0 0.1
2016-Feb-01 23:33N 26°04' W 080°08'0 0.0
2016-Feb-01 22:34N 26°04' W 080°08'0 0.0
2016-Feb-01 21:33N 26°04' W 080°08'0 0.0
2016-Feb-01 20:33N 26°04' W 080°08'0 0.0
2016-Feb-01 19:33N 26°04' W 080°08'0 0.0
2016-Feb-01 18:34N 26°04' W 080°08'0 0.0
2016-Feb-01 17:34N 26°04' W 080°08'0 0.0
2016-Feb-01 16:34N 26°04' W 080°08'0 0.0
2016-Feb-01 15:33N 26°04' W 080°08'0 0.1
2016-Feb-01 14:33N 26°04' W 080°08'0 0.0
2016-Feb-01 13:33N 26°04' W 080°08'0 0.0
2016-Feb-01 12:33N 26°04' W 080°08'0 0.0
2016-Feb-01 11:33N 26°04' W 080°08'0 0.0
2016-Feb-01 10:34N 26°04' W 080°08'0 0.0
2016-Feb-01 09:33N 26°04' W 080°08'0 0.0
2016-Feb-01 08:33N 26°04' W 080°08'0 0.0
2016-Feb-01 07:33N 26°04' W 080°08'0 0.0
2016-Feb-01 06:33N 26°04' W 080°08'0 0.0
2016-Feb-01 05:33N 26°04' W 080°08'0 0.0
2016-Feb-01 04:34N 26°04' W 080°08'0 0.0
2016-Feb-01 03:34N 26°04' W 080°08'0 0.0
2016-Feb-01 02:33N 26°04' W 080°08'0 0.0
2016-Feb-01 01:33N 26°04' W 080°08'0 0.0
2016-Feb-01 00:33N 26°04' W 080°08'0 0.0
2016-Jan-31 23:33N 26°04' W 080°08'4 4.4
2016-Jan-31 22:33N 26°06' W 080°03'6 5.7
2016-Jan-31 21:33N 26°04' W 079°57'4 3.7
2016-Jan-31 20:33N 26°02' W 079°54'4 3.8
2016-Jan-31 19:33N 26°01' W 079°50'5 5.1
2016-Jan-31 18:33N 25°60' W 079°44'6 5.9
2016-Jan-31 17:33N 25°58' W 079°38'7 7.0
2016-Jan-31 16:33N 25°56' W 079°30'  
2016-Jan-27 07:29N 25°57' W 079°34'6 6.6
2016-Jan-27 06:33N 25°59' W 079°40'6 6.1
2016-Jan-27 05:33N 26°01' W 079°47'6 6.4
2016-Jan-27 04:33N 26°02' W 079°54'7 6.6
2016-Jan-27 03:33N 26°04' W 080°01'6 6.1
2016-Jan-27 02:33N 26°04' W 080°07'0 0.4
2016-Jan-27 01:33N 26°04' W 080°08'0 0.0
2016-Jan-27 00:33N 26°04' W 080°08'0 0.0
2016-Jan-26 23:34N 26°04' W 080°08'0 0.0
2016-Jan-26 22:33N 26°04' W 080°08'0 0.0
2016-Jan-26 21:34N 26°04' W 080°08'0 0.0
2016-Jan-26 20:33N 26°04' W 080°08'0 0.0
2016-Jan-26 19:33N 26°04' W 080°08'0 0.0
2016-Jan-26 18:33N 26°04' W 080°08'0 0.0
2016-Jan-26 17:33N 26°04' W 080°08'0 0.0
2016-Jan-26 16:33N 26°04' W 080°08'0 0.0
2016-Jan-26 15:33N 26°04' W 080°08'0 0.0
2016-Jan-26 14:33N 26°04' W 080°08'0 0.0
2016-Jan-26 13:33N 26°04' W 080°08'0 0.0
2016-Jan-26 12:33N 26°04' W 080°08'0 0.0
2016-Jan-26 11:33N 26°04' W 080°08'0 0.0
2016-Jan-26 10:34N 26°04' W 080°08'0 0.0
2016-Jan-26 09:33N 26°04' W 080°08'0 0.0
2016-Jan-26 08:33N 26°04' W 080°08'0 0.0
2016-Jan-26 07:34N 26°04' W 080°08'0 0.0
2016-Jan-26 06:33N 26°04' W 080°08'0 0.0
2016-Jan-26 05:33N 26°04' W 080°08'0 0.0
2016-Jan-26 04:34N 26°04' W 080°08'0 0.0
2016-Jan-26 03:33N 26°04' W 080°08'0 0.0
2016-Jan-26 02:33N 26°04' W 080°08'0 0.0
2016-Jan-26 01:33N 26°04' W 080°08'0 0.0
2016-Jan-26 00:33N 26°04' W 080°08'0 0.0
2016-Jan-25 23:33N 26°04' W 080°08'0 0.0
2016-Jan-25 22:33N 26°04' W 080°08'  
Track history (hours):
 
Tides and Currents Weather Stations Pressure Air Temp Water Temp Dewpoint Dewpoint Depression Visibility Wind Speed Wind Dir Waves Ship Positions

Seaexpressii

Last reported at 2016-Feb-04 22:27 UTC. Time now 2016-Feb-05 22:24 UTC.
Position N 26°05' W 079°59'.

Length 37 m; draft 2.1 m.

Type: Ship (hazmat cat B). MMSI: 356449000.

Date/timePositionNaut miles runAvg speedWind from/ knotsBaromVisibWave heightAir tempDewpointWater temp
2016-Feb-04 22:27N 26°05' W 079°59'7 7.3
2016-Feb-04 21:28N 26°04' W 080°07'1 0.2
2016-Feb-04 17:17N 26°04' W 080°08'14 7.8
2016-Feb-04 15:32N 26°02' W 079°53'10 0.3
2016-Feb-03 07:23N 26°05' W 080°04'4 4.7
2016-Feb-03 06:33N 26°04' W 080°08'0 0.0
2016-Feb-03 02:24N 26°04' W 080°08'1 0.3
2016-Feb-03 00:19N 26°04' W 080°07'19 1.0
2016-Feb-02 05:28N 26°11' W 079°47'910.2
2016-Feb-02 04:33N 26°08' W 079°57'9 9.4
2016-Feb-02 03:33N 26°05' W 080°07'2 1.8
2016-Feb-02 02:33N 26°04' W 080°08'0 0.0
2016-Feb-02 01:33N 26°04' W 080°08'0 0.0
2016-Feb-02 00:34N 26°04' W 080°08'0 0.1
2016-Feb-01 23:33N 26°04' W 080°08'0 0.0
2016-Feb-01 22:34N 26°04' W 080°08'0 0.0
2016-Feb-01 21:33N 26°04' W 080°08'0 0.0
2016-Feb-01 20:33N 26°04' W 080°08'0 0.0
2016-Feb-01 19:33N 26°04' W 080°08'0 0.0
2016-Feb-01 18:34N 26°04' W 080°08'0 0.0
2016-Feb-01 17:34N 26°04' W 080°08'0 0.0
2016-Feb-01 16:34N 26°04' W 080°08'0 0.0
2016-Feb-01 15:33N 26°04' W 080°08'0 0.1
2016-Feb-01 14:33N 26°04' W 080°08'0 0.0
2016-Feb-01 13:33N 26°04' W 080°08'0 0.0
2016-Feb-01 12:33N 26°04' W 080°08'0 0.0
2016-Feb-01 11:33N 26°04' W 080°08'0 0.0
2016-Feb-01 10:34N 26°04' W 080°08'0 0.0
2016-Feb-01 09:33N 26°04' W 080°08'0 0.0
2016-Feb-01 08:33N 26°04' W 080°08'0 0.0
2016-Feb-01 07:33N 26°04' W 080°08'0 0.0
2016-Feb-01 06:33N 26°04' W 080°08'0 0.0
2016-Feb-01 05:33N 26°04' W 080°08'0 0.0
2016-Feb-01 04:34N 26°04' W 080°08'0 0.0
2016-Feb-01 03:34N 26°04' W 080°08'0 0.0
2016-Feb-01 02:33N 26°04' W 080°08'0 0.0
2016-Feb-01 01:33N 26°04' W 080°08'0 0.0
2016-Feb-01 00:33N 26°04' W 080°08'0 0.0
2016-Jan-31 23:33N 26°04' W 080°08'4 4.4
2016-Jan-31 22:33N 26°06' W 080°03'6 5.7
2016-Jan-31 21:33N 26°04' W 079°57'4 3.7
2016-Jan-31 20:33N 26°02' W 079°54'4 3.8
2016-Jan-31 19:33N 26°01' W 079°50'5 5.1
2016-Jan-31 18:33N 25°60' W 079°44'6 5.9
2016-Jan-31 17:33N 25°58' W 079°38'7 7.0
2016-Jan-31 16:33N 25°56' W 079°30'  
2016-Jan-27 07:29N 25°57' W 079°34'6 6.6
2016-Jan-27 06:33N 25°59' W 079°40'6 6.1
2016-Jan-27 05:33N 26°01' W 079°47'6 6.4
2016-Jan-27 04:33N 26°02' W 079°54'7 6.6
2016-Jan-27 03:33N 26°04' W 080°01'6 6.1
2016-Jan-27 02:33N 26°04' W 080°07'0 0.4
2016-Jan-27 01:33N 26°04' W 080°08'0 0.0
2016-Jan-27 00:33N 26°04' W 080°08'0 0.0
2016-Jan-26 23:34N 26°04' W 080°08'0 0.0
2016-Jan-26 22:33N 26°04' W 080°08'0 0.0
2016-Jan-26 21:34N 26°04' W 080°08'0 0.0
2016-Jan-26 20:33N 26°04' W 080°08'0 0.0
2016-Jan-26 19:33N 26°04' W 080°08'0 0.0
2016-Jan-26 18:33N 26°04' W 080°08'0 0.0
2016-Jan-26 17:33N 26°04' W 080°08'0 0.0
2016-Jan-26 16:33N 26°04' W 080°08'0 0.0
2016-Jan-26 15:33N 26°04' W 080°08'0 0.0
2016-Jan-26 14:33N 26°04' W 080°08'0 0.0
2016-Jan-26 13:33N 26°04' W 080°08'0 0.0
2016-Jan-26 12:33N 26°04' W 080°08'0 0.0
2016-Jan-26 11:33N 26°04' W 080°08'0 0.0
2016-Jan-26 10:34N 26°04' W 080°08'0 0.0
2016-Jan-26 09:33N 26°04' W 080°08'0 0.0
2016-Jan-26 08:33N 26°04' W 080°08'0 0.0
2016-Jan-26 07:34N 26°04' W 080°08'0 0.0
2016-Jan-26 06:33N 26°04' W 080°08'0 0.0
2016-Jan-26 05:33N 26°04' W 080°08'0 0.0
2016-Jan-26 04:34N 26°04' W 080°08'0 0.0
2016-Jan-26 03:33N 26°04' W 080°08'0 0.0
2016-Jan-26 02:33N 26°04' W 080°08'0 0.0
2016-Jan-26 01:33N 26°04' W 080°08'0 0.0
2016-Jan-26 00:33N 26°04' W 080°08'0 0.0
2016-Jan-25 23:33N 26°04' W 080°08'0 0.0
2016-Jan-25 22:33N 26°04' W 080°08'  

Dump ship's entire track history